createdAt,value
2018-11-01T00:01:30.048Z,101446.58
2018-11-01T00:03:58.658Z,101447.84
2018-11-01T00:06:27.199Z,101450.00
2018-11-01T00:08:55.698Z,101450.84
2018-11-01T00:11:24.497Z,101442.05
2018-11-01T00:13:52.998Z,101436.72
2018-11-01T00:16:21.641Z,101438.86
2018-11-01T00:18:50.290Z,101437.00
2018-11-01T00:21:18.767Z,101426.89
2018-11-01T00:23:47.232Z,101430.34
2018-11-01T00:26:15.791Z,101429.84
2018-11-01T00:28:44.596Z,101431.98
2018-11-01T00:31:13.065Z,101436.32
2018-11-01T00:33:41.669Z,101437.23
2018-11-01T00:36:10.142Z,101431.15
2018-11-01T00:38:38.751Z,101437.36
2018-11-01T00:41:07.454Z,101443.48
2018-11-01T00:43:36.003Z,101439.66
2018-11-01T00:46:04.786Z,101443.72
2018-11-01T00:48:33.350Z,101445.91
2018-11-01T00:51:02.132Z,101445.06
2018-11-01T00:53:30.592Z,101449.88
2018-11-01T00:55:59.196Z,101446.82
2018-11-01T00:58:27.659Z,101456.41
2018-11-01T01:00:56.142Z,101450.68
2018-11-01T01:03:24.984Z,101454.98
2018-11-01T01:05:53.540Z,101452.31
2018-11-01T01:08:22.397Z,101456.69
2018-11-01T01:10:50.908Z,101460.20
2018-11-01T01:13:20.307Z,101451.91
2018-11-01T01:15:48.843Z,101454.55
2018-11-01T01:18:17.476Z,101446.30
2018-11-01T01:20:46.049Z,101445.91
2018-11-01T01:23:14.620Z,101453.38
2018-11-01T01:25:43.467Z,101455.61
2018-11-01T01:28:11.924Z,101455.69
2018-11-01T01:30:40.734Z,101347.11
2018-11-01T01:33:09.223Z,101452.62
2018-11-01T01:35:38.578Z,101453.94
2018-11-01T01:38:07.150Z,101452.62
2018-11-01T01:40:35.774Z,101450.91
2018-11-01T01:43:05.019Z,101446.09
2018-11-01T01:45:33.491Z,101446.53
2018-11-01T01:48:02.122Z,101456.20
2018-11-01T01:50:30.603Z,101451.39
2018-11-01T01:52:59.465Z,101454.02
2018-11-01T01:55:27.974Z,101455.33
2018-11-01T01:57:56.470Z,101453.17
2018-11-01T02:00:25.095Z,101453.69
2018-11-01T02:02:53.690Z,101447.56
2018-11-01T02:05:22.506Z,101457.55
2018-11-01T02:07:51.078Z,101449.27
2018-11-01T02:10:20.077Z,101349.88
2018-11-01T02:12:48.622Z,101448.44
2018-11-01T02:15:18.392Z,101445.81
2018-11-01T02:17:46.895Z,101449.27
2018-11-01T02:20:16.917Z,101442.31
2018-11-01T02:22:46.083Z,101444.90
2018-11-01T02:25:14.741Z,101441.40
2018-11-01T02:27:48.479Z,101449.27
2018-11-01T02:30:18.164Z,101388.09
2018-11-01T02:32:46.840Z,101451.94
2018-11-01T02:35:16.867Z,101391.05
2018-11-01T02:37:45.827Z,101451.02
2018-11-01T02:40:14.914Z,101452.30
2018-11-01T02:42:43.838Z,101449.23
2018-11-01T02:45:13.516Z,101389.66
2018-11-01T02:47:42.043Z,101451.78
2018-11-01T02:50:11.633Z,101447.37
2018-11-01T02:52:40.310Z,101457.80
2018-11-01T02:55:09.726Z,101452.55
2018-11-01T02:57:38.243Z,101459.03
2018-11-01T03:00:09.975Z,101459.00
2018-11-01T03:02:38.524Z,101455.94
2018-11-01T03:05:07.786Z,101459.39
2018-11-01T03:07:36.359Z,101451.52
2018-11-01T03:10:05.852Z,101445.75
2018-11-01T03:12:34.382Z,101446.19
2018-11-01T03:15:02.903Z,101440.94
2018-11-01T03:17:31.762Z,101434.77
2018-11-01T03:20:00.438Z,101440.02
2018-11-01T03:22:29.207Z,101438.70
2018-11-01T03:24:57.683Z,101436.48
2018-11-01T03:27:26.346Z,101444.80
2018-11-01T03:29:55.172Z,101442.56
2018-11-01T03:32:23.674Z,101444.80
2018-11-01T03:34:52.275Z,101329.84
2018-11-01T03:37:20.778Z,101444.28
2018-11-01T03:39:49.871Z,101438.15
2018-11-01T03:42:18.600Z,101432.89
2018-11-01T03:44:48.156Z,101440.73
2018-11-01T03:47:16.623Z,101441.14
2018-11-01T03:49:45.311Z,101440.70
2018-11-01T03:52:13.983Z,101443.72
2018-11-01T03:54:42.566Z,101384.62
2018-11-01T03:57:11.103Z,101373.53
2018-11-01T03:59:39.586Z,101451.92
2018-11-01T04:02:08.314Z,101449.30
2018-11-01T04:04:36.791Z,101445.79
2018-11-01T04:07:05.407Z,101450.13
2018-11-01T04:09:33.939Z,101442.65
2018-11-01T04:12:02.459Z,101448.34
2018-11-01T04:14:30.999Z,101440.41
2018-11-01T04:16:59.555Z,101443.05
2018-11-01T04:19:28.331Z,101436.00
2018-11-01T04:22:01.348Z,101437.75
2018-11-01T04:24:29.894Z,101439.45
2018-11-01T04:26:58.416Z,101443.00
2018-11-01T04:29:27.158Z,101437.75
2018-11-01T04:31:55.755Z,101439.45
2018-11-01T04:34:24.584Z,101443.00
2018-11-01T04:36:53.208Z,101441.69
2018-11-01T04:39:21.883Z,101443.80
2018-11-01T04:41:50.526Z,101447.34
2018-11-01T04:44:19.234Z,101437.23
2018-11-01T04:46:47.955Z,101426.45
2018-11-01T04:49:16.685Z,101434.20
2018-11-01T04:51:45.450Z,101438.55
2018-11-01T04:54:14.160Z,101428.04
2018-11-01T04:56:42.918Z,101433.29
2018-11-01T04:59:11.507Z,101431.58
2018-11-01T05:01:40.040Z,101441.25
2018-11-01T05:04:08.542Z,101439.50
2018-11-01T05:06:37.179Z,101433.33
2018-11-01T05:09:07.467Z,101453.55
2018-11-01T05:11:36.102Z,101438.23
2018-11-01T05:14:04.803Z,101398.72
2018-11-01T05:16:33.353Z,101439.54
2018-11-01T05:19:01.967Z,101437.83
2018-11-01T05:21:30.562Z,101435.16
2018-11-01T05:24:01.270Z,101439.54
2018-11-01T05:26:30.528Z,101429.95
2018-11-01T05:28:59.090Z,101433.89
2018-11-01T05:31:27.646Z,101425.58
2018-11-01T05:33:56.138Z,101427.32
2018-11-01T05:36:24.709Z,101405.72
2018-11-01T05:38:53.179Z,101428.20
2018-11-01T05:41:22.080Z,101325.37
2018-11-01T05:43:50.854Z,101425.49
2018-11-01T05:46:19.586Z,101421.98
2018-11-01T05:48:48.227Z,101422.86
2018-11-01T05:51:16.715Z,101428.55
2018-11-01T05:53:46.153Z,101426.72
2018-11-01T05:56:14.723Z,101427.16
2018-11-01T05:58:43.602Z,101369.36
2018-11-01T06:01:12.981Z,101420.59
2018-11-01T06:03:42.027Z,101426.24
2018-11-01T06:06:10.683Z,101427.08
2018-11-01T06:08:41.284Z,101422.73
2018-11-01T06:11:09.799Z,101423.13
2018-11-01T06:13:38.904Z,101427.08
2018-11-01T06:16:07.686Z,101430.45
2018-11-01T06:18:36.449Z,101428.70
2018-11-01T06:21:06.747Z,101426.03
2018-11-01T06:23:35.620Z,101426.83
2018-11-01T06:26:04.319Z,101430.37
2018-11-01T06:28:32.859Z,101424.16
2018-11-01T06:31:01.346Z,101422.84
2018-11-01T06:33:29.923Z,101431.16
2018-11-01T06:36:01.101Z,101431.56
2018-11-01T06:38:29.631Z,101433.28
2018-11-01T06:40:58.340Z,101435.42
2018-11-01T06:43:26.910Z,101437.14
2018-11-01T06:45:55.651Z,101433.63
2018-11-01T06:48:24.334Z,101423.91
2018-11-01T06:50:52.956Z,101423.42
2018-11-01T06:53:21.479Z,101428.24
2018-11-01T06:55:49.996Z,101425.57
2018-11-01T06:58:18.782Z,101367.95
2018-11-01T07:00:47.254Z,101432.45
2018-11-01T07:03:15.953Z,101431.58
2018-11-01T07:05:44.544Z,101419.22
2018-11-01T07:10:44.451Z,101415.85
2018-11-01T07:13:13.283Z,101368.23
2018-11-01T07:15:41.914Z,101409.89
2018-11-01T07:18:10.686Z,101412.03
2018-11-01T07:20:39.224Z,101407.58
2018-11-01T07:23:07.815Z,101398.28
2018-11-01T07:25:36.568Z,101389.55
2018-11-01T07:28:05.278Z,101399.02
2018-11-01T07:30:34.198Z,101336.83
2018-11-01T07:33:02.790Z,101396.20
2018-11-01T07:35:32.158Z,101404.00
2018-11-01T07:38:00.803Z,101394.30
2018-11-01T07:40:29.565Z,101386.31
2018-11-01T07:42:58.074Z,101388.38
2018-11-01T07:45:26.582Z,101387.84
2018-11-01T07:47:55.098Z,101388.14
2018-11-01T07:50:23.820Z,101385.80
2018-11-01T07:52:52.519Z,101378.64
2018-11-01T07:55:21.018Z,101377.62
2018-11-01T07:57:49.627Z,101383.62
2018-11-01T08:00:18.921Z,101383.91
2018-11-01T08:02:48.159Z,101377.23
2018-11-01T08:05:17.303Z,101375.38
2018-11-01T08:07:45.912Z,101381.41
2018-11-01T08:10:15.963Z,101372.50
2018-11-01T08:12:45.148Z,101361.90
2018-11-01T08:15:16.053Z,101362.62
2018-11-01T08:17:44.619Z,101361.98
2018-11-01T08:20:14.268Z,101361.09
2018-11-01T08:22:42.914Z,101362.36
2018-11-01T08:25:12.210Z,101364.12
2018-11-01T08:27:41.641Z,101357.44
2018-11-01T08:30:12.270Z,101350.36
2018-11-01T08:32:40.913Z,101362.06
2018-11-01T08:35:10.531Z,101358.49
2018-11-01T08:37:39.583Z,101358.13
2018-11-01T08:40:09.111Z,101358.94
2018-11-01T08:42:37.711Z,101357.52
2018-11-01T08:45:08.115Z,101355.17
2018-11-01T08:47:36.796Z,101350.12
2018-11-01T08:50:06.442Z,101340.16
2018-11-01T08:52:35.069Z,101338.51
2018-11-01T08:55:03.757Z,101338.18
2018-11-01T08:57:32.246Z,101341.80
2018-11-01T09:00:01.031Z,101338.22
2018-11-01T09:02:29.515Z,101334.70
2018-11-01T09:04:58.079Z,101336.37
2018-11-01T09:07:26.895Z,101343.51
2018-11-01T09:09:55.323Z,101358.89
2018-11-01T09:12:24.134Z,101358.02
2018-11-01T09:14:52.686Z,101353.95
2018-11-01T09:17:21.418Z,101353.11
2018-11-01T09:19:50.923Z,101346.45
2018-11-01T09:22:21.611Z,101344.20
2018-11-01T09:24:50.800Z,101340.02
2018-11-01T09:27:22.517Z,101335.48
2018-11-01T09:29:53.506Z,101336.09
2018-11-01T09:32:24.291Z,101333.18
2018-11-01T09:34:59.602Z,101329.61
2018-11-01T09:37:32.958Z,101323.82
2018-11-01T09:40:03.337Z,101311.02
2018-11-01T09:42:32.027Z,101303.91
2018-11-01T09:45:01.829Z,101306.30
2018-11-01T09:47:34.351Z,101299.26
2018-11-01T09:50:06.586Z,101306.88
2018-11-01T09:52:37.026Z,101300.66
2018-11-01T09:55:06.105Z,101296.16
2018-11-01T09:57:34.806Z,101307.91
2018-11-01T10:00:05.856Z,101302.12
2018-11-01T10:02:35.959Z,101283.77
2018-11-01T10:05:07.825Z,101296.20
2018-11-01T10:07:44.818Z,101292.50
2018-11-01T10:10:15.590Z,101247.88
2018-11-01T10:12:48.254Z,101285.42
2018-11-01T10:15:16.855Z,101277.37
2018-11-01T10:17:45.768Z,101268.27
2018-11-01T10:20:15.083Z,101259.17
2018-11-01T10:22:44.071Z,101240.32
2018-11-01T10:25:14.116Z,101233.00
2018-11-01T10:27:42.735Z,101229.84
2018-11-01T10:30:14.943Z,101225.60
2018-11-01T10:32:44.648Z,101226.72
2018-11-01T10:35:13.533Z,101226.16
2018-11-01T10:37:42.552Z,101208.27
2018-11-01T10:40:13.668Z,101207.84
2018-11-01T10:42:42.615Z,101206.70
2018-11-01T10:45:11.487Z,101201.20
2018-11-01T10:47:40.547Z,101155.41
2018-11-01T10:50:12.951Z,101186.23
2018-11-01T10:52:41.635Z,101183.20
2018-11-01T10:55:11.101Z,101190.20
2018-11-01T10:57:40.099Z,101172.57
2018-11-01T11:00:14.168Z,101178.75
2018-11-01T11:02:42.710Z,101184.91
2018-11-01T11:05:11.503Z,101182.27
2018-11-01T11:07:40.105Z,101176.53
2018-11-01T11:10:08.649Z,101176.69
2018-11-01T11:12:37.234Z,101179.05
2018-11-01T11:15:06.738Z,101173.54
2018-11-01T11:17:35.267Z,101183.11
2018-11-01T11:20:04.601Z,101188.25
2018-11-01T11:22:33.464Z,101141.81
2018-11-01T11:25:02.111Z,101175.30
2018-11-01T11:27:30.802Z,101176.55
2018-11-01T11:29:59.588Z,101175.98
2018-11-01T11:32:28.185Z,101183.84
2018-11-01T11:34:56.803Z,101185.58
2018-11-01T11:37:25.280Z,101178.78
2018-11-01T11:39:53.818Z,101157.47
2018-11-01T11:42:22.350Z,101157.88
2018-11-01T11:44:51.278Z,101151.05
2018-11-01T11:47:19.841Z,101147.00
2018-11-01T11:49:48.371Z,101135.09
2018-11-01T11:52:16.946Z,101131.89
2018-11-01T11:54:45.650Z,101142.47
2018-11-01T11:57:14.466Z,101068.44
2018-11-01T11:59:43.067Z,101126.52
2018-11-01T12:02:11.821Z,101127.77
2018-11-01T12:04:40.302Z,101121.48
2018-11-01T12:07:08.949Z,101116.66
2018-11-01T12:09:37.594Z,101123.27
2018-11-01T12:12:06.240Z,101118.35
2018-11-01T12:14:35.080Z,101110.34
2018-11-01T12:17:04.079Z,101117.19
2018-11-01T12:19:32.742Z,101104.11
2018-11-01T12:22:01.223Z,101122.17
2018-11-01T12:24:30.153Z,101122.17
2018-11-01T12:26:58.819Z,101105.91
2018-11-01T12:29:27.312Z,101102.89
2018-11-01T12:31:56.414Z,101098.77
2018-11-01T12:34:24.964Z,101097.44
2018-11-01T12:36:54.070Z,101082.48
2018-11-01T12:39:22.686Z,101079.67
2018-11-01T12:41:51.698Z,101036.50
2018-11-01T12:44:20.163Z,101073.06
2018-11-01T12:46:48.646Z,101072.68
2018-11-01T12:49:17.123Z,101076.27
2018-11-01T12:51:45.803Z,101077.19
2018-11-01T12:54:14.327Z,101083.80
2018-11-01T12:56:42.955Z,101081.72
2018-11-01T12:59:11.738Z,101051.43
2018-11-01T13:01:40.299Z,101087.92
2018-11-01T13:04:08.963Z,101082.17
2018-11-01T13:06:37.531Z,101078.28
2018-11-01T13:09:09.731Z,101077.34
2018-11-01T13:11:38.319Z,101082.62
2018-11-01T13:14:07.071Z,101068.80
2018-11-01T13:16:35.671Z,101079.53
2018-11-01T13:19:04.207Z,101076.02
2018-11-01T13:21:32.690Z,101076.02
2018-11-01T13:24:01.195Z,101074.69
2018-11-01T13:26:29.862Z,101078.36
2018-11-01T13:28:58.817Z,101075.27
2018-11-01T13:31:27.608Z,101073.38
2018-11-01T13:33:56.103Z,101071.82
2018-11-01T13:36:24.638Z,101074.09
2018-11-01T13:38:53.351Z,101070.66
2018-11-01T13:41:22.185Z,101074.17
2018-11-01T13:43:50.537Z,101070.73
2018-11-01T13:46:19.057Z,101073.08
2018-11-01T13:48:47.671Z,101069.27
2018-11-01T13:51:16.156Z,101057.89
2018-11-01T13:53:44.782Z,101046.52
2018-11-01T13:56:13.307Z,101046.70
2018-11-01T13:58:41.863Z,101043.27
2018-11-01T14:01:10.487Z,101042.03
2018-11-01T14:03:38.947Z,101046.07
2018-11-01T14:06:07.721Z,101048.08
2018-11-01T14:08:36.339Z,101047.32
2018-11-01T14:11:05.303Z,101032.66
2018-11-01T14:13:34.223Z,101036.48
2018-11-01T14:16:02.442Z,101021.70
2018-11-01T14:18:30.903Z,101001.70
2018-11-01T14:20:59.370Z,100997.99
2018-11-01T14:23:28.158Z,100998.22
2018-11-01T14:25:56.725Z,100985.23
2018-11-01T14:28:25.407Z,100988.02
2018-11-01T14:30:53.945Z,100984.29
2018-11-01T14:33:22.491Z,100981.49
2018-11-01T14:35:50.998Z,100986.85
2018-11-01T14:38:19.604Z,100987.08
2018-11-01T14:40:48.395Z,100980.20
2018-11-01T14:43:16.974Z,100987.38
2018-11-01T14:45:45.918Z,100982.62
2018-11-01T14:48:14.403Z,100985.03
2018-11-01T14:50:43.078Z,100984.23
2018-11-01T14:53:12.196Z,100982.68
2018-11-01T14:55:41.691Z,100972.27
2018-11-01T14:58:09.987Z,100975.96
2018-11-01T15:00:37.328Z,100978.52
2018-11-01T15:03:06.499Z,100981.30
2018-11-01T15:05:35.011Z,100975.40
2018-11-01T15:08:03.847Z,100874.91
2018-11-01T15:10:32.366Z,100974.37
2018-11-01T15:13:01.074Z,100933.24
2018-11-01T15:15:29.715Z,100969.37
2018-11-01T15:17:58.262Z,100971.26
2018-11-01T15:20:26.919Z,100927.88
2018-11-01T15:22:55.420Z,100958.41
2018-11-01T15:25:24.482Z,100923.54
2018-11-01T15:27:52.939Z,100963.98
2018-11-01T15:30:21.672Z,100964.12
2018-11-01T15:32:50.169Z,100965.58
2018-11-01T15:35:18.646Z,100962.56
2018-11-01T15:37:47.230Z,100954.78
2018-11-01T15:40:15.811Z,100961.52
2018-11-01T15:42:44.911Z,100956.91
2018-11-01T15:45:14.239Z,100951.77
2018-11-01T15:47:43.559Z,100950.94
2018-11-01T15:52:40.532Z,100935.38
2018-11-01T15:55:09.445Z,100937.53
2018-11-01T15:57:39.486Z,100934.52
2018-11-01T16:00:10.472Z,100934.66
2018-11-01T16:02:40.820Z,100933.48
2018-11-01T16:05:09.726Z,100926.88
2018-11-01T16:07:38.826Z,100927.41
2018-11-01T16:10:08.287Z,100931.36
2018-11-01T16:12:37.612Z,100937.57
2018-11-01T16:15:08.355Z,100927.16
2018-11-01T16:17:37.413Z,100919.25
2018-11-01T16:20:06.247Z,100907.90
2018-11-01T16:22:35.281Z,100902.77
2018-11-01T16:25:04.111Z,100901.92
2018-11-01T16:27:32.691Z,100890.20
2018-11-01T16:30:01.283Z,100884.51
2018-11-01T16:32:29.855Z,100881.03
2018-11-01T16:34:58.531Z,100877.60
2018-11-01T16:37:27.011Z,100882.56
2018-11-01T16:39:55.774Z,100877.50
2018-11-01T16:42:24.391Z,100881.31
2018-11-01T16:44:53.013Z,100869.97
2018-11-01T16:47:21.622Z,100864.17
2018-11-01T16:49:50.262Z,100861.13
2018-11-01T16:52:19.071Z,100859.42
2018-11-01T16:54:47.687Z,100843.59
2018-11-01T16:57:16.765Z,100845.47
2018-11-01T16:59:45.435Z,100835.38
2018-11-01T17:02:14.039Z,100833.26
2018-11-01T17:04:42.494Z,100821.88
2018-11-01T17:07:11.079Z,100822.78
2018-11-01T17:09:39.682Z,100827.16
2018-11-01T17:12:08.266Z,100820.14
2018-11-01T17:14:37.240Z,100785.13
2018-11-01T17:17:05.855Z,100825.56
2018-11-01T17:19:34.710Z,100828.12
2018-11-01T17:22:03.327Z,100822.33
2018-11-01T17:24:32.071Z,100768.97
2018-11-01T17:27:00.693Z,100819.91
2018-11-01T17:29:29.221Z,100816.89
2018-11-01T17:31:57.896Z,100814.19
2018-11-01T17:34:26.350Z,100805.41
2018-11-01T17:36:55.223Z,100725.63
2018-11-01T17:39:23.738Z,100792.36
2018-11-01T17:41:52.473Z,100787.47
2018-11-01T17:44:21.027Z,100791.84
2018-11-01T17:46:49.638Z,100786.95
2018-11-01T17:49:18.215Z,100782.61
2018-11-01T17:51:46.817Z,100772.06
2018-11-01T17:54:16.772Z,100768.11
2018-11-01T17:56:46.043Z,100763.29
2018-11-01T17:59:15.402Z,100671.39
2018-11-01T18:01:43.925Z,100762.05
2018-11-01T18:04:12.814Z,100709.05
2018-11-01T18:06:41.415Z,100759.03
2018-11-01T18:09:13.038Z,100761.59
2018-11-01T18:11:41.595Z,100756.25
2018-11-01T18:14:10.536Z,100750.04
2018-11-01T18:16:39.183Z,100746.61
2018-11-01T18:19:07.682Z,100740.28
2018-11-01T18:21:36.282Z,100691.59
2018-11-01T18:24:05.995Z,100719.95
2018-11-01T18:26:34.555Z,100708.50
2018-11-01T18:29:03.209Z,100701.11
2018-11-01T18:31:31.940Z,100702.44
2018-11-01T18:34:00.455Z,100712.05
2018-11-01T18:36:29.813Z,100711.89
2018-11-01T18:38:58.311Z,100711.44
2018-11-01T18:41:26.999Z,100701.27
2018-11-01T18:43:55.502Z,100699.50
2018-11-01T18:46:24.099Z,100699.50
2018-11-01T18:48:52.726Z,100698.56
2018-11-01T18:51:21.204Z,100700.27
2018-11-01T18:53:49.978Z,100696.87
2018-11-01T18:56:18.446Z,100698.56
2018-11-01T18:58:47.011Z,100705.46
2018-11-01T19:01:15.480Z,100694.91
2018-11-01T19:03:43.979Z,100692.69
2018-11-01T19:06:12.643Z,100689.19
2018-11-01T19:08:41.135Z,100690.51
2018-11-01T19:11:09.908Z,100643.94
2018-11-01T19:13:38.393Z,100677.96
2018-11-01T19:16:07.086Z,100674.38
2018-11-01T19:18:35.821Z,100661.58
2018-11-01T19:21:04.451Z,100661.98
2018-11-01T19:23:33.072Z,100662.89
2018-11-01T19:26:01.574Z,100663.69
2018-11-01T19:28:30.992Z,100659.95
2018-11-01T19:30:59.638Z,100652.91
2018-11-01T19:33:28.358Z,100656.79
2018-11-01T19:35:56.847Z,100660.74
2018-11-01T19:38:25.448Z,100664.17
2018-11-01T19:40:53.923Z,100647.55
2018-11-01T19:43:22.447Z,100649.81
2018-11-01T19:45:51.260Z,100643.60
2018-11-01T19:48:19.759Z,100643.14
2018-11-01T19:50:48.425Z,100640.59
2018-11-01T19:53:16.947Z,100637.08
2018-11-01T19:55:45.443Z,100641.49
2018-11-01T19:58:13.979Z,100645.45
2018-11-01T20:00:42.502Z,100651.52
2018-11-01T20:03:11.350Z,100655.47
2018-11-01T20:05:39.914Z,100644.92
2018-11-01T20:08:08.577Z,100632.11
2018-11-01T20:10:37.102Z,100626.53
2018-11-01T20:13:05.720Z,100624.20
2018-11-01T20:15:34.352Z,100626.45
2018-11-01T20:18:02.849Z,100609.69
2018-11-01T20:20:31.723Z,100605.36
2018-11-01T20:23:00.309Z,100612.41
2018-11-01T20:25:28.992Z,100627.39
2018-11-01T20:27:57.486Z,100622.12
2018-11-01T20:30:26.713Z,100614.96
2018-11-01T20:32:55.193Z,100614.96
2018-11-01T20:35:23.792Z,100622.50
2018-11-01T20:37:52.421Z,100611.57
2018-11-01T20:40:20.920Z,100614.20
2018-11-01T20:42:49.576Z,100503.11
2018-11-01T20:45:18.131Z,100594.09
2018-11-01T20:47:46.679Z,100595.91
2018-11-01T20:50:15.477Z,100610.56
2018-11-01T20:52:43.975Z,100598.77
2018-11-01T20:55:12.454Z,100586.98
2018-11-01T20:57:41.195Z,100584.88
2018-11-01T21:00:12.211Z,100503.11
2018-11-01T21:02:40.950Z,100567.09
2018-11-01T21:05:09.970Z,100569.92
2018-11-01T21:07:38.410Z,100557.27
2018-11-01T21:10:08.693Z,100479.10
2018-11-01T21:12:38.046Z,100564.23
2018-11-01T21:15:08.534Z,100572.15
2018-11-01T21:17:37.570Z,100557.19
2018-11-01T21:20:06.654Z,100560.69
2018-11-01T21:22:35.255Z,100546.19
2018-11-01T21:25:04.119Z,100508.41
2018-11-01T21:27:32.638Z,100553.69
2018-11-01T21:30:01.152Z,100563.33
2018-11-01T21:32:29.651Z,100566.05
2018-11-01T21:34:58.218Z,100561.14
2018-11-01T21:37:26.947Z,100548.87
2018-11-01T21:39:55.599Z,100550.52
2018-11-01T21:42:24.258Z,100554.48
2018-11-01T21:44:52.943Z,100549.95
2018-11-01T21:47:21.571Z,100536.77
2018-11-01T21:49:50.075Z,100545.63
2018-11-01T21:52:18.635Z,100531.91
2018-11-01T21:54:48.109Z,100537.56
2018-11-01T21:57:16.618Z,100533.53
2018-11-01T21:59:45.382Z,100519.89
2018-11-01T22:02:13.964Z,100528.55
2018-11-01T22:04:42.766Z,100514.61
2018-11-01T22:07:11.511Z,100512.13
2018-11-01T22:09:40.182Z,100534.14
2018-11-01T22:12:08.614Z,100526.56
2018-11-01T22:14:37.107Z,100523.94
2018-11-01T22:17:06.483Z,100435.79
2018-11-01T22:19:35.007Z,100525.09
2018-11-01T22:22:04.478Z,100512.82
2018-11-01T22:24:32.967Z,100493.98
2018-11-01T22:27:01.755Z,100419.82
2018-11-01T22:29:30.375Z,100477.38
2018-11-01T22:31:58.927Z,100474.75
2018-11-01T22:34:27.567Z,100472.11
2018-11-01T22:36:56.108Z,100459.88
2018-11-01T22:39:24.959Z,100450.80
2018-11-01T22:41:53.491Z,100457.23
2018-11-01T22:44:22.098Z,100452.75
2018-11-01T22:46:50.597Z,100454.59
2018-11-01T22:49:19.174Z,100453.28
2018-11-01T22:51:48.201Z,100459.88
2018-11-01T22:54:16.737Z,100466.47
2018-11-01T22:56:45.388Z,100391.86
2018-11-01T22:59:13.889Z,100462.43
2018-11-01T23:01:42.643Z,100463.38
2018-11-01T23:04:11.213Z,100455.38
2018-11-01T23:06:40.027Z,100459.80
2018-11-01T23:09:09.819Z,100470.27
2018-11-01T23:11:39.205Z,100473.68
2018-11-01T23:14:07.891Z,100471.80
2018-11-01T23:16:36.899Z,100459.85
2018-11-01T23:19:05.996Z,100460.23
2018-11-01T23:21:34.549Z,100452.67
2018-11-01T23:24:03.894Z,100456.55
2018-11-01T23:26:32.683Z,100455.36
2018-11-01T23:29:01.533Z,100455.28
2018-11-01T23:31:30.015Z,100457.92
2018-11-01T23:33:58.799Z,100384.86
2018-11-01T23:36:26.404Z,100442.55
2018-11-01T23:39:00.178Z,100432.45
2018-11-01T23:41:34.058Z,100435.42
2018-11-01T23:44:07.936Z,100434.56
2018-11-01T23:46:41.523Z,100430.98
2018-11-01T23:49:17.536Z,100432.16
2018-11-01T23:52:07.433Z,100438.52
2018-11-01T23:54:36.183Z,100432.08
2018-11-01T23:57:04.827Z,100436.98
2018-11-01T23:59:33.645Z,100430.39
